createdAt,value
2023-03-05T00:01:55.806Z,1.30
2023-03-05T00:04:23.538Z,1.30
2023-03-05T00:06:50.738Z,1.30
2023-03-05T00:09:17.644Z,1.30
2023-03-05T00:11:44.408Z,1.30
2023-03-05T00:14:11.564Z,1.30
2023-03-05T00:16:38.614Z,1.30
2023-03-05T00:19:06.042Z,1.30
2023-03-05T00:21:35.698Z,1.30
2023-03-05T00:24:04.833Z,1.30
2023-03-05T00:26:34.437Z,1.30
2023-03-05T00:29:01.247Z,1.30
2023-03-05T00:31:31.385Z,1.30
2023-03-05T00:34:01.095Z,1.20
2023-03-05T00:36:28.666Z,1.20
2023-03-05T00:38:56.291Z,1.20
2023-03-05T00:41:23.264Z,1.20
2023-03-05T00:43:50.085Z,1.20
2023-03-05T00:46:17.186Z,1.20
2023-03-05T00:48:43.926Z,1.20
2023-03-05T00:51:11.010Z,1.20
2023-03-05T00:53:37.831Z,1.30
2023-03-05T00:56:04.980Z,1.30
2023-03-05T00:58:31.842Z,1.30
2023-03-05T01:01:00.292Z,1.30
2023-03-05T01:03:27.644Z,1.30
2023-03-05T01:05:54.612Z,1.20
2023-03-05T01:08:21.482Z,1.30
2023-03-05T01:10:48.597Z,1.20
2023-03-05T01:13:15.452Z,1.20
2023-03-05T01:15:42.239Z,1.10
2023-03-05T01:18:09.337Z,1.10
2023-03-05T01:20:36.391Z,1.20
2023-03-05T01:23:03.243Z,1.10
2023-03-05T01:25:29.985Z,1.10
2023-03-05T01:27:56.990Z,1.10
2023-03-05T01:30:23.776Z,1.20
2023-03-05T01:32:50.595Z,1.20
2023-03-05T01:35:20.943Z,1.20
2023-03-05T01:37:48.201Z,1.20
2023-03-05T01:40:18.502Z,1.20
2023-03-05T01:42:47.164Z,1.20
2023-03-05T01:45:17.060Z,1.20
2023-03-05T01:47:44.713Z,1.20
2023-03-05T01:50:18.515Z,1.20
2023-03-05T01:52:54.709Z,1.20
2023-03-05T01:55:24.396Z,1.20
2023-03-05T01:58:03.138Z,1.10
2023-03-05T02:00:35.015Z,1.10
2023-03-05T02:03:05.605Z,1.10
2023-03-05T02:05:35.405Z,1.10
2023-03-05T02:08:06.546Z,1.10
2023-03-05T02:10:46.463Z,1.20
2023-03-05T02:13:24.395Z,1.10
2023-03-05T02:15:53.663Z,1.10
2023-03-05T02:18:21.706Z,1.10
2023-03-05T02:20:56.577Z,1.10
2023-03-05T02:23:29.884Z,1.10
2023-03-05T02:25:56.643Z,1.10
2023-03-05T02:28:40.679Z,1.10
2023-03-05T02:31:19.517Z,1.10
2023-03-05T02:33:46.833Z,1.20
2023-03-05T02:36:14.093Z,1.20
2023-03-05T02:38:42.369Z,1.20
2023-03-05T02:41:09.820Z,1.20
2023-03-05T02:43:37.987Z,1.20
2023-03-05T02:46:05.534Z,1.20
2023-03-05T02:48:32.779Z,1.20
2023-03-05T02:51:00.698Z,1.20
2023-03-05T02:53:27.455Z,1.10
2023-03-05T02:55:54.195Z,1.10
2023-03-05T02:58:21.272Z,1.10
2023-03-05T03:00:48.039Z,1.10
2023-03-05T03:03:15.029Z,1.20
2023-03-05T03:05:42.003Z,1.20
2023-03-05T03:08:08.742Z,1.20
2023-03-05T03:10:35.499Z,1.20
2023-03-05T03:13:02.556Z,1.20
2023-03-05T03:15:29.868Z,1.20
2023-03-05T03:17:56.675Z,1.30
2023-03-05T03:20:23.526Z,1.30
2023-03-05T03:22:50.606Z,1.20
2023-03-05T03:25:20.119Z,1.20
2023-03-05T03:27:46.906Z,1.20
2023-03-05T03:30:14.811Z,1.20
2023-03-05T03:32:41.690Z,1.30
2023-03-05T03:35:09.405Z,1.30
2023-03-05T03:37:36.408Z,1.30
2023-03-05T03:40:05.679Z,1.30
2023-03-05T03:42:33.482Z,1.30
2023-03-05T03:45:02.158Z,1.30
2023-03-05T03:47:30.360Z,1.30
2023-03-05T03:49:58.716Z,1.30
2023-03-05T03:52:26.412Z,1.30
2023-03-05T03:54:53.695Z,1.30
2023-03-05T03:57:20.522Z,1.30
2023-03-05T03:59:47.553Z,1.30
2023-03-05T04:02:14.407Z,1.30
2023-03-05T04:04:41.260Z,1.30
2023-03-05T04:07:08.194Z,1.20
2023-03-05T04:09:34.978Z,1.20
2023-03-05T04:12:01.729Z,1.30
2023-03-05T04:14:29.010Z,1.20
2023-03-05T04:16:55.868Z,1.30
2023-03-05T04:19:22.986Z,1.30
2023-03-05T04:21:49.715Z,1.30
2023-03-05T04:24:16.484Z,1.20
2023-03-05T04:26:43.191Z,1.20
2023-03-05T04:29:09.913Z,1.20
2023-03-05T04:31:36.746Z,1.30
2023-03-05T04:34:03.538Z,1.30
2023-03-05T04:36:30.432Z,1.30
2023-03-05T04:38:57.224Z,1.30
2023-03-05T04:41:23.955Z,1.30
2023-03-05T04:43:50.714Z,1.30
2023-03-05T04:46:17.484Z,1.30
2023-03-05T04:48:44.253Z,1.30
2023-03-05T04:51:11.044Z,1.40
2023-03-05T04:53:37.875Z,1.30
2023-03-05T04:56:05.024Z,1.30
2023-03-05T04:58:31.772Z,1.30
2023-03-05T05:01:02.634Z,1.30
2023-03-05T05:03:29.975Z,1.30
2023-03-05T05:05:58.418Z,1.30
2023-03-05T05:08:25.990Z,1.30
2023-03-05T05:10:57.866Z,1.30
2023-03-05T05:13:25.862Z,1.30
2023-03-05T05:15:52.747Z,1.30
2023-03-05T05:18:20.023Z,1.30
2023-03-05T05:20:47.339Z,1.20
2023-03-05T05:23:14.692Z,1.20
2023-03-05T05:25:43.178Z,1.20
2023-03-05T05:28:11.345Z,1.20
2023-03-05T05:30:38.568Z,1.30
2023-03-05T05:33:05.296Z,1.20
2023-03-05T05:35:32.081Z,1.30
2023-03-05T05:37:58.868Z,1.30
2023-03-05T05:40:25.659Z,1.30
2023-03-05T05:42:52.423Z,1.30
2023-03-05T05:45:19.309Z,1.30
2023-03-05T05:47:46.076Z,1.20
2023-03-05T05:50:12.946Z,1.20
2023-03-05T05:52:39.818Z,1.20
2023-03-05T05:55:07.074Z,1.20
2023-03-05T05:57:34.878Z,1.20
2023-03-05T06:00:01.772Z,1.20
2023-03-05T06:02:29.246Z,1.20
2023-03-05T06:04:58.254Z,1.20
2023-03-05T06:07:26.822Z,1.30
2023-03-05T06:09:53.549Z,1.30
2023-03-05T06:12:20.280Z,1.30
2023-03-05T06:14:47.046Z,1.30
2023-03-05T06:17:21.882Z,1.30
2023-03-05T06:19:55.156Z,1.30
2023-03-05T06:22:21.926Z,1.30
2023-03-05T06:24:48.658Z,1.30
2023-03-05T06:27:15.393Z,1.30
2023-03-05T06:29:42.153Z,1.30
2023-03-05T06:32:09.191Z,1.30
2023-03-05T06:34:36.124Z,1.30
2023-03-05T06:37:02.870Z,1.30
2023-03-05T06:39:31.450Z,1.30
2023-03-05T06:41:58.416Z,1.30
2023-03-05T06:44:25.686Z,1.40
2023-03-05T06:46:52.485Z,1.40
2023-03-05T06:49:19.263Z,1.40
2023-03-05T06:51:46.089Z,1.40
2023-03-05T06:54:15.650Z,1.40
2023-03-05T06:56:44.978Z,1.50
2023-03-05T06:59:13.510Z,1.50
2023-03-05T07:01:40.486Z,1.50
2023-03-05T07:04:07.488Z,1.60
2023-03-05T07:06:36.800Z,1.60
2023-03-05T07:09:04.660Z,1.70
2023-03-05T07:11:32.030Z,1.60
2023-03-05T07:13:59.213Z,1.60
2023-03-05T07:16:28.705Z,1.70
2023-03-05T07:18:57.161Z,1.60
2023-03-05T07:21:26.392Z,1.70
2023-03-05T07:23:54.668Z,1.70
2023-03-05T07:26:21.432Z,1.70
2023-03-05T07:28:48.187Z,1.70
2023-03-05T07:31:20.572Z,1.80
2023-03-05T07:33:48.935Z,1.80
2023-03-05T07:36:16.848Z,1.70
2023-03-05T07:38:43.612Z,1.80
2023-03-05T07:41:19.624Z,1.80
2023-03-05T07:43:48.853Z,1.80
2023-03-05T07:46:17.863Z,1.90
2023-03-05T07:48:45.314Z,1.90
2023-03-05T07:51:20.061Z,1.90
2023-03-05T07:53:49.006Z,2.00
2023-03-05T07:56:23.372Z,2.10
2023-03-05T07:58:50.372Z,2.10
2023-03-05T08:01:17.316Z,2.10
2023-03-05T08:03:44.730Z,2.10
2023-03-05T08:06:12.542Z,2.00
2023-03-05T08:08:39.417Z,2.00
2023-03-05T08:11:07.967Z,2.00
2023-03-05T08:13:34.852Z,2.00
2023-03-05T08:16:09.344Z,2.10
2023-03-05T08:18:36.342Z,2.10
2023-03-05T08:21:03.573Z,2.20
2023-03-05T08:23:30.892Z,2.20
2023-03-05T08:25:57.712Z,2.30
2023-03-05T08:28:27.621Z,2.30
2023-03-05T08:30:54.394Z,2.40
2023-03-05T08:33:21.204Z,2.40
2023-03-05T08:35:48.079Z,2.40
2023-03-05T08:38:14.872Z,2.50
2023-03-05T08:40:43.024Z,2.70
2023-03-05T08:43:09.798Z,2.80
2023-03-05T08:45:38.525Z,2.80
2023-03-05T08:48:05.473Z,2.80
2023-03-05T08:50:32.209Z,2.80
2023-03-05T08:53:00.113Z,2.90
2023-03-05T08:55:26.909Z,3.00
2023-03-05T08:57:53.659Z,3.10
2023-03-05T09:00:20.787Z,3.00
2023-03-05T09:02:47.585Z,3.10
2023-03-05T09:05:16.024Z,3.00
2023-03-05T09:07:43.413Z,3.10
2023-03-05T09:10:13.249Z,2.90
2023-03-05T09:12:40.556Z,2.90
2023-03-05T09:15:08.374Z,2.90
2023-03-05T09:17:39.231Z,2.80
2023-03-05T09:20:06.904Z,2.80
2023-03-05T09:22:33.686Z,2.80
2023-03-05T09:25:02.007Z,2.70
2023-03-05T09:27:29.516Z,2.60
2023-03-05T09:29:56.540Z,2.70
2023-03-05T09:32:23.812Z,2.70
2023-03-05T09:34:50.985Z,2.60
2023-03-05T09:37:18.038Z,2.70
2023-03-05T09:39:44.808Z,2.80
2023-03-05T09:42:38.798Z,2.80
2023-03-05T09:45:28.408Z,2.80
2023-03-05T09:48:42.930Z,2.90
2023-03-05T09:51:16.729Z,2.90
2023-03-05T09:54:03.055Z,2.80
2023-03-05T09:56:36.062Z,2.90
2023-03-05T09:59:19.971Z,2.90
2023-03-05T10:01:50.149Z,3.00
2023-03-05T10:04:25.666Z,3.20
2023-03-05T10:07:17.655Z,3.10
2023-03-05T10:09:54.817Z,3.10
2023-03-05T10:12:32.520Z,3.30
2023-03-05T10:15:02.950Z,3.40
2023-03-05T10:18:05.726Z,3.50
2023-03-05T10:20:42.367Z,3.40
2023-03-05T10:23:35.189Z,3.60
2023-03-05T10:26:16.429Z,3.80
2023-03-05T10:29:05.024Z,3.80
2023-03-05T10:32:10.025Z,3.80
2023-03-05T10:34:51.745Z,3.90
2023-03-05T10:37:27.752Z,3.80
2023-03-05T10:40:21.450Z,3.70
2023-03-05T10:43:16.369Z,3.90
2023-03-05T10:45:47.441Z,3.90
2023-03-05T10:48:36.335Z,3.90
2023-03-05T10:51:31.597Z,3.90
2023-03-05T10:54:02.410Z,3.80
2023-03-05T10:56:31.789Z,3.80
2023-03-05T10:58:58.633Z,3.70
2023-03-05T11:01:28.421Z,3.80
2023-03-05T11:04:06.339Z,3.80
2023-03-05T11:06:39.600Z,3.50
2023-03-05T11:09:16.389Z,3.50
2023-03-05T11:11:43.572Z,3.50
2023-03-05T11:14:30.932Z,3.40
2023-03-05T11:16:57.984Z,3.40
2023-03-05T11:19:32.918Z,3.20
2023-03-05T11:22:17.145Z,3.00
2023-03-05T11:24:46.651Z,3.00
2023-03-05T11:27:30.374Z,2.90
2023-03-05T11:29:57.496Z,2.80
2023-03-05T11:32:27.351Z,2.90
2023-03-05T11:34:55.965Z,2.90
2023-03-05T11:37:31.555Z,2.90
2023-03-05T11:40:18.009Z,3.00
2023-03-05T11:42:45.931Z,3.00
2023-03-05T11:45:19.306Z,3.10
2023-03-05T11:47:50.361Z,3.20
2023-03-05T11:50:25.710Z,3.10
2023-03-05T11:53:17.799Z,3.10
2023-03-05T11:55:55.770Z,3.20
2023-03-05T11:58:39.136Z,3.30
2023-03-05T12:01:21.437Z,3.40
2023-03-05T12:03:49.555Z,3.30
2023-03-05T12:06:35.044Z,3.30
2023-03-05T12:09:12.399Z,3.30
2023-03-05T12:11:40.273Z,3.20
2023-03-05T12:14:22.877Z,3.20
2023-03-05T12:17:07.671Z,3.10
2023-03-05T12:19:35.615Z,3.10
2023-03-05T12:22:03.781Z,3.10
2023-03-05T12:24:30.568Z,3.10
2023-03-05T12:27:04.559Z,3.20
2023-03-05T12:29:40.020Z,3.10
2023-03-05T12:32:33.969Z,3.10
2023-03-05T12:35:04.339Z,3.10
2023-03-05T12:37:31.341Z,3.00
2023-03-05T12:40:12.235Z,2.90
2023-03-05T12:42:38.937Z,2.90
2023-03-05T12:45:11.773Z,2.90
2023-03-05T12:47:40.562Z,2.80
2023-03-05T12:50:29.195Z,2.80
2023-03-05T12:53:17.485Z,2.80
2023-03-05T12:55:47.262Z,2.70
2023-03-05T12:58:25.505Z,2.70
2023-03-05T13:01:03.016Z,2.70
2023-03-05T13:03:43.586Z,2.60
2023-03-05T13:06:34.140Z,2.60
2023-03-05T13:09:16.469Z,2.60
2023-03-05T13:11:47.896Z,2.60
2023-03-05T13:14:42.476Z,2.60
2023-03-05T13:17:29.021Z,2.50
2023-03-05T13:19:57.121Z,2.60
2023-03-05T13:22:24.659Z,2.50
2023-03-05T13:25:23.736Z,2.50
2023-03-05T13:27:50.504Z,2.50
2023-03-05T13:30:26.264Z,2.50
2023-03-05T13:32:57.732Z,2.50
2023-03-05T13:35:24.703Z,2.60
2023-03-05T13:37:51.801Z,2.70
2023-03-05T13:40:25.468Z,2.70
2023-03-05T13:42:53.762Z,2.80
2023-03-05T13:45:25.505Z,2.80
2023-03-05T13:48:03.938Z,2.90
2023-03-05T13:50:36.806Z,2.80
2023-03-05T13:53:30.108Z,2.90
2023-03-05T13:56:03.002Z,2.90
2023-03-05T13:58:52.423Z,2.90
2023-03-05T14:01:30.462Z,3.00
2023-03-05T14:04:17.693Z,3.00
2023-03-05T14:07:05.851Z,3.00
2023-03-05T14:09:47.244Z,3.00
2023-03-05T14:12:42.671Z,3.10
2023-03-05T14:15:26.280Z,3.10
2023-03-05T14:18:07.152Z,3.10
2023-03-05T14:20:34.268Z,3.10
2023-03-05T14:23:01.945Z,3.00
2023-03-05T14:25:38.043Z,2.90
2023-03-05T14:28:07.982Z,2.90
2023-03-05T14:30:36.169Z,2.90
2023-03-05T14:33:04.178Z,2.80
2023-03-05T14:35:31.412Z,2.80
2023-03-05T14:37:59.652Z,2.70
2023-03-05T14:40:35.192Z,2.70
2023-03-05T14:43:11.634Z,2.70
2023-03-05T14:45:40.787Z,2.70
2023-03-05T14:48:08.483Z,2.80
2023-03-05T14:50:42.575Z,2.80
2023-03-05T14:53:15.091Z,2.80
2023-03-05T14:55:48.739Z,2.80
2023-03-05T14:58:18.609Z,2.90
2023-03-05T15:00:45.445Z,2.90
2023-03-05T15:03:14.476Z,3.10
2023-03-05T15:05:42.259Z,3.00
2023-03-05T15:08:30.989Z,3.10
2023-03-05T15:10:59.171Z,3.10
2023-03-05T15:13:26.626Z,3.10
2023-03-05T15:15:53.734Z,3.10
2023-03-05T15:18:22.379Z,3.20
2023-03-05T15:20:52.843Z,3.10
2023-03-05T15:23:20.148Z,3.10
2023-03-05T15:25:47.051Z,3.10
2023-03-05T15:28:14.054Z,2.90
2023-03-05T15:30:44.703Z,3.10
2023-03-05T15:33:14.818Z,3.00
2023-03-05T15:35:42.257Z,2.90
2023-03-05T15:38:09.137Z,2.90
2023-03-05T15:40:35.903Z,2.90
2023-03-05T15:43:02.663Z,2.80
2023-03-05T15:45:31.368Z,2.80
2023-03-05T15:47:58.297Z,2.80
2023-03-05T15:50:25.222Z,2.70
2023-03-05T15:52:52.552Z,2.80
2023-03-05T15:55:20.033Z,2.80
2023-03-05T15:57:49.668Z,2.80
2023-03-05T16:00:22.051Z,2.70
2023-03-05T16:02:49.456Z,2.80
2023-03-05T16:05:16.487Z,2.70
2023-03-05T16:07:45.955Z,2.70
2023-03-05T16:10:17.578Z,2.60
2023-03-05T16:12:46.458Z,2.60
2023-03-05T16:15:18.068Z,2.60
2023-03-05T16:17:48.482Z,2.60
2023-03-05T16:20:16.417Z,2.50
2023-03-05T16:22:43.302Z,2.50
2023-03-05T16:25:10.744Z,2.60
2023-03-05T16:27:37.656Z,2.60
2023-03-05T16:30:05.620Z,2.50
2023-03-05T16:32:33.147Z,2.50
2023-03-05T16:35:00.010Z,2.50
2023-03-05T16:37:26.728Z,2.50
2023-03-05T16:39:57.221Z,2.40
2023-03-05T16:42:23.940Z,2.40
2023-03-05T16:44:50.708Z,2.30
2023-03-05T16:47:19.981Z,2.40
2023-03-05T16:49:46.753Z,2.30
2023-03-05T16:52:19.163Z,2.30
2023-03-05T16:54:46.984Z,2.30
2023-03-05T16:57:15.198Z,2.30
2023-03-05T16:59:43.484Z,2.30
2023-03-05T17:02:13.110Z,2.30
2023-03-05T17:04:40.042Z,2.30
2023-03-05T17:07:07.141Z,2.30
2023-03-05T17:09:34.303Z,2.20
2023-03-05T17:12:02.079Z,2.20
2023-03-05T17:14:30.244Z,2.20
2023-03-05T17:16:57.003Z,2.10
2023-03-05T17:19:23.920Z,2.10
2023-03-05T17:21:52.178Z,2.10
2023-03-05T17:24:20.845Z,2.10
2023-03-05T17:26:49.802Z,2.10
2023-03-05T17:29:16.656Z,2.10
2023-03-05T17:31:43.772Z,2.00
2023-03-05T17:34:10.556Z,2.10
2023-03-05T17:36:39.153Z,2.10
2023-03-05T17:39:06.036Z,2.10
2023-03-05T17:41:33.532Z,2.10
2023-03-05T17:44:00.385Z,2.00
2023-03-05T17:46:27.117Z,2.10
2023-03-05T17:48:53.870Z,2.10
2023-03-05T17:51:21.114Z,2.00
2023-03-05T17:53:48.139Z,2.00
2023-03-05T17:56:17.052Z,2.00
2023-03-05T17:58:43.874Z,2.00
2023-03-05T18:01:23.064Z,2.00
2023-03-05T18:03:50.342Z,1.90
2023-03-05T18:06:17.444Z,1.90
2023-03-05T18:08:44.218Z,1.90
2023-03-05T18:11:11.186Z,1.90
2023-03-05T18:13:37.949Z,1.90
2023-03-05T18:16:07.619Z,1.90
2023-03-05T18:18:34.822Z,1.90
2023-03-05T18:21:02.248Z,1.90
2023-03-05T18:23:29.329Z,1.90
2023-03-05T18:25:56.230Z,1.90
2023-03-05T18:28:23.026Z,1.90
2023-03-05T18:30:49.869Z,1.90
2023-03-05T18:33:22.755Z,1.90
2023-03-05T18:35:52.230Z,1.90
2023-03-05T18:38:23.244Z,1.90
2023-03-05T18:40:51.276Z,1.90
2023-03-05T18:43:20.489Z,1.90
2023-03-05T18:45:52.183Z,1.80
2023-03-05T18:48:19.867Z,1.80
2023-03-05T18:50:49.545Z,1.90
2023-03-05T18:53:16.417Z,1.80
2023-03-05T18:55:43.389Z,1.80
2023-03-05T18:58:16.296Z,1.80
2023-03-05T19:00:47.496Z,1.80
2023-03-05T19:03:15.782Z,1.90
2023-03-05T19:05:42.786Z,1.80
2023-03-05T19:08:10.732Z,1.80
2023-03-05T19:10:37.958Z,1.80
2023-03-05T19:13:28.675Z,1.80
2023-03-05T19:15:55.788Z,1.80
2023-03-05T19:18:23.369Z,1.80
2023-03-05T19:20:56.411Z,1.80
2023-03-05T19:23:23.298Z,1.80
2023-03-05T19:25:50.321Z,1.80
2023-03-05T19:28:17.149Z,1.70
2023-03-05T19:30:44.369Z,1.70
2023-03-05T19:33:11.402Z,1.70
2023-03-05T19:35:40.548Z,1.70
2023-03-05T19:38:07.956Z,1.70
2023-03-05T19:40:34.720Z,1.70
2023-03-05T19:43:01.751Z,1.70
2023-03-05T19:45:32.638Z,1.70
2023-03-05T19:48:00.464Z,1.60
2023-03-05T19:50:27.440Z,1.60
2023-03-05T19:52:54.288Z,1.60
2023-03-05T19:55:21.200Z,1.70
2023-03-05T19:57:48.159Z,1.70
2023-03-05T20:00:15.254Z,1.70
2023-03-05T20:02:42.373Z,1.70
2023-03-05T20:05:09.624Z,1.60
2023-03-05T20:07:36.356Z,1.60
2023-03-05T20:10:03.918Z,1.60
2023-03-05T20:12:31.686Z,1.60
2023-03-05T20:14:58.436Z,1.50
2023-03-05T20:17:25.477Z,1.60
2023-03-05T20:19:55.315Z,1.50
2023-03-05T20:22:22.074Z,1.50
2023-03-05T20:24:48.801Z,1.50
2023-03-05T20:27:15.578Z,1.60
2023-03-05T20:29:42.329Z,1.50
2023-03-05T20:32:09.539Z,1.50
2023-03-05T20:34:36.274Z,1.50
2023-03-05T20:37:04.952Z,1.40
2023-03-05T20:39:32.025Z,1.50
2023-03-05T20:42:00.419Z,1.50
2023-03-05T20:44:27.182Z,1.40
2023-03-05T20:47:02.635Z,1.40
2023-03-05T20:49:30.257Z,1.40
2023-03-05T20:51:57.441Z,1.40
2023-03-05T20:54:27.187Z,1.40
2023-03-05T20:56:53.952Z,1.40
2023-03-05T20:59:23.190Z,1.40
2023-03-05T21:01:50.488Z,1.40
2023-03-05T21:04:17.265Z,1.40
2023-03-05T21:06:43.977Z,1.40
2023-03-05T21:09:10.988Z,1.30
2023-03-05T21:11:38.007Z,1.20
2023-03-05T21:14:05.256Z,1.20
2023-03-05T21:16:32.751Z,1.20
2023-03-05T21:18:59.560Z,1.20
2023-03-05T21:21:26.636Z,1.30
2023-03-05T21:23:53.777Z,1.20
2023-03-05T21:26:21.637Z,1.20
2023-03-05T21:28:48.783Z,1.20
2023-03-05T21:31:18.810Z,1.20
2023-03-05T21:33:45.832Z,1.20
2023-03-05T21:36:12.991Z,1.20
2023-03-05T21:38:40.577Z,1.10
2023-03-05T21:41:07.338Z,1.10
2023-03-05T21:43:34.159Z,1.10
2023-03-05T21:46:03.011Z,1.20
2023-03-05T21:48:32.311Z,1.10
2023-03-05T21:50:59.544Z,1.20
2023-03-05T21:53:26.486Z,1.10
2023-03-05T21:56:20.861Z,1.10
2023-03-05T21:58:49.423Z,1.00
2023-03-05T22:01:18.351Z,1.10
2023-03-05T22:03:46.634Z,1.10
2023-03-05T22:06:14.470Z,1.10
2023-03-05T22:08:41.467Z,1.10
2023-03-05T22:11:10.317Z,1.10
2023-03-05T22:13:38.072Z,1.00
2023-03-05T22:16:05.937Z,0.90
2023-03-05T22:18:33.995Z,0.90
2023-03-05T22:21:01.472Z,0.90
2023-03-05T22:23:30.639Z,0.90
2023-03-05T22:26:03.252Z,0.90
2023-03-05T22:28:30.435Z,0.90
2023-03-05T22:30:57.254Z,0.90
2023-03-05T22:33:25.335Z,0.90
2023-03-05T22:35:52.177Z,0.90
2023-03-05T22:38:19.297Z,0.90
2023-03-05T22:40:48.086Z,0.90
2023-03-05T22:43:15.859Z,0.90
2023-03-05T22:45:42.716Z,0.90
2023-03-05T22:48:10.485Z,0.90
2023-03-05T22:50:38.232Z,0.90
2023-03-05T22:53:05.146Z,0.90
2023-03-05T22:55:31.882Z,0.90
2023-03-05T22:57:58.707Z,0.80
2023-03-05T23:00:26.691Z,0.80
2023-03-05T23:02:53.978Z,0.80
2023-03-05T23:05:21.456Z,0.80
2023-03-05T23:07:48.278Z,0.80
2023-03-05T23:10:17.065Z,0.90
2023-03-05T23:12:49.039Z,0.80
2023-03-05T23:15:19.823Z,0.80
2023-03-05T23:17:46.925Z,0.80
2023-03-05T23:20:16.877Z,0.90
2023-03-05T23:22:44.775Z,0.90
2023-03-05T23:25:13.901Z,0.80
2023-03-05T23:27:41.472Z,0.90
2023-03-05T23:30:19.798Z,0.90
2023-03-05T23:32:53.080Z,1.00
2023-03-05T23:35:22.023Z,0.90
2023-03-05T23:37:48.990Z,0.90
2023-03-05T23:40:22.434Z,0.90
2023-03-05T23:42:49.312Z,0.90
2023-03-05T23:45:18.939Z,0.90
2023-03-05T23:47:48.194Z,0.90
2023-03-05T23:50:18.739Z,0.80
2023-03-05T23:52:46.767Z,0.70
2023-03-05T23:55:18.572Z,0.60
2023-03-05T23:57:45.821Z,0.60
